sensor_id;sensor_type;location;lat;lon;timestamp;P1;durP1;ratioP1;P2;durP2;ratioP2
70796;SDS011;63842;52.144;5.360;2022-11-15T00:01:44;25.10;;;10.82;;
70796;SDS011;63842;52.144;5.360;2022-11-15T00:04:30;26.30;;;11.38;;
70796;SDS011;63842;52.144;5.360;2022-11-15T00:07:16;26.70;;;11.00;;
70796;SDS011;63842;52.144;5.360;2022-11-15T00:10:21;26.52;;;10.68;;
70796;SDS011;63842;52.144;5.360;2022-11-15T00:13:08;27.98;;;11.02;;
70796;SDS011;63842;52.144;5.360;2022-11-15T00:15:56;26.15;;;11.07;;
70796;SDS011;63842;52.144;5.360;2022-11-15T00:18:42;26.33;;;10.77;;
70796;SDS011;63842;52.144;5.360;2022-11-15T00:21:34;28.20;;;11.27;;
70796;SDS011;63842;52.144;5.360;2022-11-15T00:24:20;25.75;;;11.35;;
70796;SDS011;63842;52.144;5.360;2022-11-15T00:27:06;29.20;;;11.85;;
70796;SDS011;63842;52.144;5.360;2022-11-15T00:29:52;28.17;;;11.23;;
70796;SDS011;63842;52.144;5.360;2022-11-15T00:32:38;27.70;;;11.43;;
70796;SDS011;63842;52.144;5.360;2022-11-15T00:35:24;27.30;;;11.35;;
70796;SDS011;63842;52.144;5.360;2022-11-15T00:38:10;29.92;;;12.10;;
70796;SDS011;63842;52.144;5.360;2022-11-15T00:40:56;31.63;;;11.57;;
70796;SDS011;63842;52.144;5.360;2022-11-15T00:43:42;25.02;;;9.93;;
70796;SDS011;63842;52.144;5.360;2022-11-15T00:46:29;30.42;;;12.02;;
70796;SDS011;63842;52.144;5.360;2022-11-15T00:49:14;29.88;;;10.90;;
70796;SDS011;63842;52.144;5.360;2022-11-15T00:52:00;30.33;;;11.57;;
70796;SDS011;63842;52.144;5.360;2022-11-15T00:54:46;29.38;;;11.73;;
70796;SDS011;63842;52.144;5.360;2022-11-15T00:57:32;28.60;;;11.95;;
70796;SDS011;63842;52.144;5.360;2022-11-15T01:00:18;27.73;;;11.45;;
70796;SDS011;63842;52.144;5.360;2022-11-15T01:03:04;34.08;;;12.23;;
70796;SDS011;63842;52.144;5.360;2022-11-15T01:05:50;37.72;;;13.38;;
70796;SDS011;63842;52.144;5.360;2022-11-15T01:08:36;28.50;;;11.90;;
70796;SDS011;63842;52.144;5.360;2022-11-15T01:11:21;29.48;;;12.10;;
70796;SDS011;63842;52.144;5.360;2022-11-15T01:14:07;32.80;;;12.88;;
70796;SDS011;63842;52.144;5.360;2022-11-15T01:16:53;29.33;;;12.27;;
70796;SDS011;63842;52.144;5.360;2022-11-15T01:19:39;34.67;;;12.98;;
70796;SDS011;63842;52.144;5.360;2022-11-15T01:22:25;31.65;;;12.85;;
70796;SDS011;63842;52.144;5.360;2022-11-15T01:25:11;30.35;;;11.70;;
70796;SDS011;63842;52.144;5.360;2022-11-15T01:27:57;29.00;;;11.07;;
70796;SDS011;63842;52.144;5.360;2022-11-15T01:30:43;31.17;;;12.30;;
70796;SDS011;63842;52.144;5.360;2022-11-15T01:33:29;32.03;;;13.07;;
70796;SDS011;63842;52.144;5.360;2022-11-15T01:36:17;33.05;;;12.45;;
70796;SDS011;63842;52.144;5.360;2022-11-15T01:39:03;36.33;;;12.82;;
70796;SDS011;63842;52.144;5.360;2022-11-15T01:41:48;29.15;;;12.13;;
70796;SDS011;63842;52.144;5.360;2022-11-15T01:47:25;33.33;;;11.82;;
70796;SDS011;63842;52.144;5.360;2022-11-15T01:50:14;30.80;;;11.77;;
70796;SDS011;63842;52.144;5.360;2022-11-15T01:53:07;29.52;;;12.68;;
70796;SDS011;63842;52.144;5.360;2022-11-15T01:55:55;29.98;;;13.10;;
70796;SDS011;63842;52.144;5.360;2022-11-15T01:58:41;29.27;;;11.98;;
70796;SDS011;63842;52.144;5.360;2022-11-15T02:01:27;28.95;;;11.93;;
70796;SDS011;63842;52.144;5.360;2022-11-15T02:04:19;28.67;;;11.88;;
70796;SDS011;63842;52.144;5.360;2022-11-15T02:07:06;27.88;;;12.68;;
70796;SDS011;63842;52.144;5.360;2022-11-15T02:09:54;26.63;;;11.65;;
70796;SDS011;63842;52.144;5.360;2022-11-15T02:12:40;29.77;;;12.13;;
70796;SDS011;63842;52.144;5.360;2022-11-15T02:15:28;32.75;;;12.38;;
70796;SDS011;63842;52.144;5.360;2022-11-15T02:18:19;30.20;;;12.18;;
70796;SDS011;63842;52.144;5.360;2022-11-15T02:21:14;31.20;;;12.43;;
70796;SDS011;63842;52.144;5.360;2022-11-15T02:32:44;30.88;;;12.10;;
70796;SDS011;63842;52.144;5.360;2022-11-15T02:38:22;36.85;;;13.27;;
70796;SDS011;63842;52.144;5.360;2022-11-15T02:41:30;30.70;;;13.05;;
70796;SDS011;63842;52.144;5.360;2022-11-15T02:47:07;30.60;;;11.77;;
70796;SDS011;63842;52.144;5.360;2022-11-15T02:49:58;28.92;;;12.85;;
70796;SDS011;63842;52.144;5.360;2022-11-15T02:52:47;28.75;;;12.52;;
70796;SDS011;63842;52.144;5.360;2022-11-15T02:55:34;30.08;;;12.20;;
70796;SDS011;63842;52.144;5.360;2022-11-15T03:01:42;33.42;;;14.13;;
70796;SDS011;63842;52.144;5.360;2022-11-15T03:13:04;29.73;;;13.05;;
70796;SDS011;63842;52.144;5.360;2022-11-15T03:16:02;32.83;;;13.18;;
70796;SDS011;63842;52.144;5.360;2022-11-15T03:18:50;30.58;;;13.75;;
70796;SDS011;63842;52.144;5.360;2022-11-15T03:21:37;31.73;;;13.68;;
70796;SDS011;63842;52.144;5.360;2022-11-15T03:24:25;31.90;;;13.48;;
70796;SDS011;63842;52.144;5.360;2022-11-15T03:27:15;31.52;;;13.15;;
70796;SDS011;63842;52.144;5.360;2022-11-15T03:30:04;33.03;;;12.85;;
70796;SDS011;63842;52.144;5.360;2022-11-15T03:32:52;28.17;;;12.35;;
70796;SDS011;63842;52.144;5.360;2022-11-15T03:35:40;28.77;;;11.73;;
70796;SDS011;63842;52.144;5.360;2022-11-15T03:38:29;29.48;;;13.02;;
70796;SDS011;63842;52.144;5.360;2022-11-15T03:41:17;33.55;;;13.63;;
70796;SDS011;63842;52.144;5.360;2022-11-15T03:47:03;31.08;;;12.73;;
70796;SDS011;63842;52.144;5.360;2022-11-15T03:49:52;27.88;;;12.70;;
70796;SDS011;63842;52.144;5.360;2022-11-15T03:52:39;28.75;;;12.27;;
70796;SDS011;63842;52.144;5.360;2022-11-15T03:55:26;30.40;;;12.35;;
70796;SDS011;63842;52.144;5.360;2022-11-15T03:58:12;27.70;;;12.02;;
70796;SDS011;63842;52.144;5.360;2022-11-15T04:00:58;26.48;;;12.73;;
70796;SDS011;63842;52.144;5.360;2022-11-15T04:06:32;30.67;;;12.40;;
70796;SDS011;63842;52.144;5.360;2022-11-15T04:09:18;30.13;;;12.38;;
70796;SDS011;63842;52.144;5.360;2022-11-15T04:12:04;31.25;;;12.40;;
70796;SDS011;63842;52.144;5.360;2022-11-15T04:14:50;29.02;;;12.68;;
70796;SDS011;63842;52.144;5.360;2022-11-15T04:17:53;34.45;;;13.50;;
70796;SDS011;63842;52.144;5.360;2022-11-15T04:20:38;33.50;;;12.80;;
70796;SDS011;63842;52.144;5.360;2022-11-15T04:23:43;28.17;;;12.23;;
70796;SDS011;63842;52.144;5.360;2022-11-15T04:26:48;29.48;;;12.93;;
70796;SDS011;63842;52.144;5.360;2022-11-15T04:29:34;26.95;;;11.82;;
70796;SDS011;63842;52.144;5.360;2022-11-15T04:32:22;29.50;;;13.07;;
70796;SDS011;63842;52.144;5.360;2022-11-15T04:35:09;26.88;;;11.93;;
70796;SDS011;63842;52.144;5.360;2022-11-15T04:37:55;28.13;;;12.25;;
70796;SDS011;63842;52.144;5.360;2022-11-15T04:40:41;24.75;;;12.27;;
70796;SDS011;63842;52.144;5.360;2022-11-15T04:43:27;25.30;;;11.45;;
70796;SDS011;63842;52.144;5.360;2022-11-15T04:46:13;28.75;;;12.50;;
70796;SDS011;63842;52.144;5.360;2022-11-15T04:48:59;25.48;;;11.95;;
70796;SDS011;63842;52.144;5.360;2022-11-15T04:51:45;26.80;;;12.32;;
70796;SDS011;63842;52.144;5.360;2022-11-15T04:54:31;24.50;;;11.82;;
70796;SDS011;63842;52.144;5.360;2022-11-15T04:57:17;26.48;;;11.95;;
70796;SDS011;63842;52.144;5.360;2022-11-15T05:00:04;26.50;;;11.80;;
70796;SDS011;63842;52.144;5.360;2022-11-15T05:02:50;21.77;;;10.75;;
70796;SDS011;63842;52.144;5.360;2022-11-15T05:05:55;28.38;;;11.63;;
70796;SDS011;63842;52.144;5.360;2022-11-15T05:08:42;25.45;;;11.48;;
70796;SDS011;63842;52.144;5.360;2022-11-15T05:11:28;24.35;;;11.15;;
70796;SDS011;63842;52.144;5.360;2022-11-15T05:14:14;23.95;;;11.05;;
70796;SDS011;63842;52.144;5.360;2022-11-15T05:17:00;23.23;;;11.40;;
70796;SDS011;63842;52.144;5.360;2022-11-15T05:19:45;25.30;;;11.65;;
70796;SDS011;63842;52.144;5.360;2022-11-15T05:22:31;25.65;;;11.25;;
70796;SDS011;63842;52.144;5.360;2022-11-15T05:25:17;23.63;;;10.73;;
70796;SDS011;63842;52.144;5.360;2022-11-15T05:28:03;26.00;;;10.40;;
70796;SDS011;63842;52.144;5.360;2022-11-15T05:30:49;25.25;;;10.88;;
70796;SDS011;63842;52.144;5.360;2022-11-15T05:33:35;22.23;;;10.80;;
70796;SDS011;63842;52.144;5.360;2022-11-15T05:36:31;23.60;;;11.30;;
70796;SDS011;63842;52.144;5.360;2022-11-15T05:39:19;24.38;;;10.52;;
70796;SDS011;63842;52.144;5.360;2022-11-15T05:42:09;22.38;;;10.30;;
70796;SDS011;63842;52.144;5.360;2022-11-15T05:44:55;23.20;;;10.65;;
70796;SDS011;63842;52.144;5.360;2022-11-15T05:47:41;23.60;;;10.52;;
70796;SDS011;63842;52.144;5.360;2022-11-15T05:50:27;23.45;;;10.48;;
70796;SDS011;63842;52.144;5.360;2022-11-15T05:53:14;22.98;;;11.10;;
70796;SDS011;63842;52.144;5.360;2022-11-15T05:56:02;22.63;;;10.88;;
70796;SDS011;63842;52.144;5.360;2022-11-15T05:58:47;22.80;;;10.75;;
70796;SDS011;63842;52.144;5.360;2022-11-15T06:01:33;25.08;;;11.30;;
70796;SDS011;63842;52.144;5.360;2022-11-15T06:04:19;24.50;;;11.10;;
70796;SDS011;63842;52.144;5.360;2022-11-15T06:07:05;23.08;;;10.45;;
70796;SDS011;63842;52.144;5.360;2022-11-15T06:09:51;24.58;;;10.25;;
70796;SDS011;63842;52.144;5.360;2022-11-15T06:12:37;26.08;;;11.07;;
70796;SDS011;63842;52.144;5.360;2022-11-15T06:15:23;24.60;;;11.20;;
70796;SDS011;63842;52.144;5.360;2022-11-15T06:18:09;25.13;;;11.60;;
70796;SDS011;63842;52.144;5.360;2022-11-15T06:20:58;24.02;;;10.55;;
70796;SDS011;63842;52.144;5.360;2022-11-15T06:23:44;23.88;;;10.75;;
70796;SDS011;63842;52.144;5.360;2022-11-15T06:26:30;25.88;;;10.75;;
70796;SDS011;63842;52.144;5.360;2022-11-15T06:29:16;24.35;;;10.73;;
70796;SDS011;63842;52.144;5.360;2022-11-15T06:32:02;31.60;;;12.57;;
70796;SDS011;63842;52.144;5.360;2022-11-15T06:34:48;24.35;;;11.88;;
70796;SDS011;63842;52.144;5.360;2022-11-15T06:37:34;26.55;;;11.40;;
70796;SDS011;63842;52.144;5.360;2022-11-15T06:40:20;24.15;;;11.23;;
70796;SDS011;63842;52.144;5.360;2022-11-15T06:43:06;25.55;;;11.82;;
70796;SDS011;63842;52.144;5.360;2022-11-15T06:45:52;28.52;;;11.55;;
70796;SDS011;63842;52.144;5.360;2022-11-15T06:48:38;22.13;;;9.63;;
70796;SDS011;63842;52.144;5.360;2022-11-15T06:51:24;23.27;;;11.02;;
70796;SDS011;63842;52.144;5.360;2022-11-15T06:54:10;26.35;;;11.65;;
70796;SDS011;63842;52.144;5.360;2022-11-15T06:56:56;29.80;;;11.48;;
70796;SDS011;63842;52.144;5.360;2022-11-15T06:59:42;26.13;;;11.55;;
70796;SDS011;63842;52.144;5.360;2022-11-15T07:02:28;23.35;;;11.13;;
70796;SDS011;63842;52.144;5.360;2022-11-15T07:05:14;24.67;;;11.40;;
70796;SDS011;63842;52.144;5.360;2022-11-15T07:08:01;25.50;;;11.32;;
70796;SDS011;63842;52.144;5.360;2022-11-15T07:10:47;21.33;;;11.02;;
70796;SDS011;63842;52.144;5.360;2022-11-15T07:13:33;24.60;;;11.13;;
70796;SDS011;63842;52.144;5.360;2022-11-15T07:16:20;23.02;;;10.82;;
70796;SDS011;63842;52.144;5.360;2022-11-15T07:19:06;24.77;;;11.02;;
70796;SDS011;63842;52.144;5.360;2022-11-15T07:21:53;26.33;;;11.43;;
70796;SDS011;63842;52.144;5.360;2022-11-15T07:24:39;26.23;;;11.00;;
70796;SDS011;63842;52.144;5.360;2022-11-15T07:27:25;24.38;;;10.35;;
70796;SDS011;63842;52.144;5.360;2022-11-15T07:30:11;26.27;;;11.32;;
70796;SDS011;63842;52.144;5.360;2022-11-15T07:33:00;27.08;;;11.20;;
70796;SDS011;63842;52.144;5.360;2022-11-15T07:35:46;30.25;;;11.77;;
70796;SDS011;63842;52.144;5.360;2022-11-15T07:41:26;24.50;;;10.70;;
70796;SDS011;63842;52.144;5.360;2022-11-15T07:44:12;23.27;;;10.52;;
70796;SDS011;63842;52.144;5.360;2022-11-15T07:46:58;26.90;;;11.07;;
70796;SDS011;63842;52.144;5.360;2022-11-15T07:49:44;25.98;;;11.10;;
70796;SDS011;63842;52.144;5.360;2022-11-15T07:52:30;22.88;;;10.82;;
70796;SDS011;63842;52.144;5.360;2022-11-15T07:55:16;23.63;;;10.25;;
70796;SDS011;63842;52.144;5.360;2022-11-15T07:58:09;23.33;;;10.48;;
70796;SDS011;63842;52.144;5.360;2022-11-15T08:00:55;26.70;;;11.38;;
70796;SDS011;63842;52.144;5.360;2022-11-15T08:03:41;22.02;;;10.30;;
70796;SDS011;63842;52.144;5.360;2022-11-15T08:06:27;23.48;;;9.98;;
70796;SDS011;63842;52.144;5.360;2022-11-15T08:09:13;21.20;;;10.25;;
70796;SDS011;63842;52.144;5.360;2022-11-15T08:11:59;23.63;;;9.55;;
70796;SDS011;63842;52.144;5.360;2022-11-15T08:14:45;23.13;;;10.50;;
70796;SDS011;63842;52.144;5.360;2022-11-15T08:17:31;21.27;;;9.80;;
70796;SDS011;63842;52.144;5.360;2022-11-15T08:20:18;24.33;;;10.30;;
70796;SDS011;63842;52.144;5.360;2022-11-15T08:23:05;23.30;;;10.30;;
70796;SDS011;63842;52.144;5.360;2022-11-15T08:25:51;23.15;;;9.85;;
70796;SDS011;63842;52.144;5.360;2022-11-15T08:28:37;24.08;;;10.25;;
70796;SDS011;63842;52.144;5.360;2022-11-15T08:31:22;22.00;;;9.95;;
70796;SDS011;63842;52.144;5.360;2022-11-15T08:34:08;23.77;;;10.57;;
70796;SDS011;63842;52.144;5.360;2022-11-15T08:36:54;22.02;;;9.77;;
70796;SDS011;63842;52.144;5.360;2022-11-15T08:39:41;22.10;;;9.95;;
70796;SDS011;63842;52.144;5.360;2022-11-15T08:42:27;22.35;;;9.73;;
70796;SDS011;63842;52.144;5.360;2022-11-15T08:45:12;23.08;;;9.45;;
70796;SDS011;63842;52.144;5.360;2022-11-15T08:48:00;24.75;;;10.02;;
70796;SDS011;63842;52.144;5.360;2022-11-15T08:50:46;22.02;;;9.68;;
70796;SDS011;63842;52.144;5.360;2022-11-15T08:53:33;23.70;;;10.13;;
70796;SDS011;63842;52.144;5.360;2022-11-15T08:56:19;22.65;;;9.65;;
70796;SDS011;63842;52.144;5.360;2022-11-15T08:59:05;20.10;;;9.35;;
70796;SDS011;63842;52.144;5.360;2022-11-15T09:01:51;22.25;;;9.63;;
70796;SDS011;63842;52.144;5.360;2022-11-15T09:04:37;23.80;;;8.75;;
70796;SDS011;63842;52.144;5.360;2022-11-15T09:07:23;20.15;;;9.77;;
70796;SDS011;63842;52.144;5.360;2022-11-15T09:10:09;23.55;;;10.60;;
70796;SDS011;63842;52.144;5.360;2022-11-15T09:12:56;21.77;;;10.18;;
70796;SDS011;63842;52.144;5.360;2022-11-15T09:15:42;20.60;;;9.25;;
70796;SDS011;63842;52.144;5.360;2022-11-15T09:18:28;20.40;;;9.10;;
70796;SDS011;63842;52.144;5.360;2022-11-15T09:21:15;22.90;;;9.32;;
70796;SDS011;63842;52.144;5.360;2022-11-15T09:24:01;19.73;;;8.50;;
70796;SDS011;63842;52.144;5.360;2022-11-15T09:26:49;19.95;;;8.35;;
70796;SDS011;63842;52.144;5.360;2022-11-15T09:29:36;22.48;;;8.85;;
70796;SDS011;63842;52.144;5.360;2022-11-15T09:32:22;21.90;;;9.05;;
70796;SDS011;63842;52.144;5.360;2022-11-15T09:35:08;22.27;;;8.35;;
70796;SDS011;63842;52.144;5.360;2022-11-15T09:37:54;21.60;;;9.18;;
70796;SDS011;63842;52.144;5.360;2022-11-15T09:40:40;19.35;;;8.73;;
70796;SDS011;63842;52.144;5.360;2022-11-15T09:43:37;18.42;;;8.27;;
70796;SDS011;63842;52.144;5.360;2022-11-15T09:49:24;18.30;;;8.20;;
70796;SDS011;63842;52.144;5.360;2022-11-15T09:52:12;16.45;;;7.38;;
70796;SDS011;63842;52.144;5.360;2022-11-15T09:54:41;15.57;;;7.05;;
70796;SDS011;63842;52.144;5.360;2022-11-15T09:57:32;18.42;;;7.07;;
70796;SDS011;63842;52.144;5.360;2022-11-15T10:00:12;18.70;;;7.00;;
70796;SDS011;63842;52.144;5.360;2022-11-15T10:03:08;16.00;;;6.32;;
70796;SDS011;63842;52.144;5.360;2022-11-15T10:10:41;15.82;;;6.07;;
70796;SDS011;63842;52.144;5.360;2022-11-15T10:13:13;14.70;;;5.93;;
70796;SDS011;63842;52.144;5.360;2022-11-15T10:15:43;13.52;;;6.13;;
70796;SDS011;63842;52.144;5.360;2022-11-15T10:20:46;16.30;;;6.20;;
70796;SDS011;63842;52.144;5.360;2022-11-15T10:23:15;15.05;;;6.53;;
70796;SDS011;63842;52.144;5.360;2022-11-15T10:25:44;13.85;;;5.75;;
70796;SDS011;63842;52.144;5.360;2022-11-15T10:38:56;12.05;;;5.05;;
70796;SDS011;63842;52.144;5.360;2022-11-15T10:41:30;9.93;;;4.38;;
70796;SDS011;63842;52.144;5.360;2022-11-15T10:46:45;14.43;;;4.85;;
70796;SDS011;63842;52.144;5.360;2022-11-15T10:49:16;12.00;;;4.65;;
70796;SDS011;63842;52.144;5.360;2022-11-15T10:54:10;11.02;;;4.13;;
70796;SDS011;63842;52.144;5.360;2022-11-15T10:56:48;11.38;;;3.83;;
70796;SDS011;63842;52.144;5.360;2022-11-15T10:59:17;10.30;;;3.58;;
70796;SDS011;63842;52.144;5.360;2022-11-15T11:01:46;8.52;;;3.58;;
70796;SDS011;63842;52.144;5.360;2022-11-15T11:04:14;9.43;;;3.70;;
70796;SDS011;63842;52.144;5.360;2022-11-15T11:06:48;8.18;;;3.42;;
70796;SDS011;63842;52.144;5.360;2022-11-15T11:11:50;9.55;;;3.63;;
70796;SDS011;63842;52.144;5.360;2022-11-15T11:14:22;9.48;;;3.60;;
70796;SDS011;63842;52.144;5.360;2022-11-15T11:16:51;8.55;;;3.50;;
70796;SDS011;63842;52.144;5.360;2022-11-15T11:28:02;10.90;;;3.70;;
70796;SDS011;63842;52.144;5.360;2022-11-15T11:30:32;8.82;;;3.47;;
70796;SDS011;63842;52.144;5.360;2022-11-15T11:36:02;11.48;;;3.35;;
70796;SDS011;63842;52.144;5.360;2022-11-15T11:48:45;9.93;;;3.42;;
70796;SDS011;63842;52.144;5.360;2022-11-15T11:53:54;10.55;;;3.10;;
70796;SDS011;63842;52.144;5.360;2022-11-15T11:56:26;9.73;;;3.05;;
70796;SDS011;63842;52.144;5.360;2022-11-15T11:58:55;8.55;;;2.72;;
70796;SDS011;63842;52.144;5.360;2022-11-15T12:01:25;9.20;;;2.53;;
70796;SDS011;63842;52.144;5.360;2022-11-15T12:04:09;7.60;;;2.45;;
70796;SDS011;63842;52.144;5.360;2022-11-15T12:06:41;7.43;;;2.33;;
70796;SDS011;63842;52.144;5.360;2022-11-15T12:11:57;6.68;;;1.83;;
70796;SDS011;63842;52.144;5.360;2022-11-15T12:14:29;7.18;;;2.05;;
70796;SDS011;63842;52.144;5.360;2022-11-15T12:16:58;6.95;;;1.75;;
70796;SDS011;63842;52.144;5.360;2022-11-15T12:19:25;8.48;;;2.13;;
70796;SDS011;63842;52.144;5.360;2022-11-15T12:21:55;5.35;;;1.60;;
70796;SDS011;63842;52.144;5.360;2022-11-15T12:24:25;3.58;;;1.40;;
70796;SDS011;63842;52.144;5.360;2022-11-15T12:27:08;9.48;;;1.83;;
70796;SDS011;63842;52.144;5.360;2022-11-15T12:29:44;6.28;;;1.38;;
70796;SDS011;63842;52.144;5.360;2022-11-15T12:34:45;6.68;;;1.60;;
70796;SDS011;63842;52.144;5.360;2022-11-15T12:45:03;6.63;;;1.45;;
70796;SDS011;63842;52.144;5.360;2022-11-15T12:47:50;5.72;;;1.48;;
70796;SDS011;63842;52.144;5.360;2022-11-15T12:50:22;5.72;;;1.30;;
70796;SDS011;63842;52.144;5.360;2022-11-15T13:11:55;4.97;;;1.20;;
70796;SDS011;63842;52.144;5.360;2022-11-15T13:19:39;7.85;;;1.50;;
70796;SDS011;63842;52.144;5.360;2022-11-15T13:22:10;4.88;;;1.40;;
70796;SDS011;63842;52.144;5.360;2022-11-15T13:27:22;6.60;;;1.55;;
70796;SDS011;63842;52.144;5.360;2022-11-15T13:29:50;5.80;;;1.58;;
70796;SDS011;63842;52.144;5.360;2022-11-15T13:32:17;6.90;;;1.70;;
70796;SDS011;63842;52.144;5.360;2022-11-15T13:34:48;8.15;;;2.00;;
70796;SDS011;63842;52.144;5.360;2022-11-15T13:39:49;6.40;;;1.88;;
70796;SDS011;63842;52.144;5.360;2022-11-15T13:42:17;6.65;;;1.80;;
70796;SDS011;63842;52.144;5.360;2022-11-15T13:44:55;6.20;;;1.90;;
70796;SDS011;63842;52.144;5.360;2022-11-15T13:47:24;7.50;;;1.70;;
70796;SDS011;63842;52.144;5.360;2022-11-15T13:49:53;7.43;;;2.00;;
70796;SDS011;63842;52.144;5.360;2022-11-15T13:52:20;5.60;;;1.63;;
70796;SDS011;63842;52.144;5.360;2022-11-15T13:57:19;6.53;;;1.90;;
70796;SDS011;63842;52.144;5.360;2022-11-15T14:00:01;6.60;;;1.98;;
70796;SDS011;63842;52.144;5.360;2022-11-15T14:02:36;6.47;;;1.95;;
70796;SDS011;63842;52.144;5.360;2022-11-15T14:05:20;7.47;;;2.20;;
70796;SDS011;63842;52.144;5.360;2022-11-15T14:07:56;7.65;;;2.20;;
70796;SDS011;63842;52.144;5.360;2022-11-15T14:12:53;7.15;;;2.10;;
70796;SDS011;63842;52.144;5.360;2022-11-15T14:15:31;6.72;;;2.20;;
70796;SDS011;63842;52.144;5.360;2022-11-15T14:18:00;6.45;;;1.90;;
70796;SDS011;63842;52.144;5.360;2022-11-15T14:20:35;7.93;;;1.90;;
70796;SDS011;63842;52.144;5.360;2022-11-15T14:23:25;9.20;;;2.08;;
70796;SDS011;63842;52.144;5.360;2022-11-15T14:25:52;7.45;;;2.03;;
70796;SDS011;63842;52.144;5.360;2022-11-15T14:30:51;8.60;;;2.20;;
70796;SDS011;63842;52.144;5.360;2022-11-15T14:33:31;6.53;;;1.90;;
70796;SDS011;63842;52.144;5.360;2022-11-15T14:36:18;7.93;;;2.40;;
70796;SDS011;63842;52.144;5.360;2022-11-15T14:38:46;6.30;;;2.30;;
70796;SDS011;63842;52.144;5.360;2022-11-15T14:41:17;7.65;;;2.35;;
70796;SDS011;63842;52.144;5.360;2022-11-15T14:43:45;11.80;;;3.10;;
70796;SDS011;63842;52.144;5.360;2022-11-15T14:46:12;7.10;;;2.33;;
70796;SDS011;63842;52.144;5.360;2022-11-15T14:48:40;7.70;;;2.60;;
70796;SDS011;63842;52.144;5.360;2022-11-15T14:51:11;6.72;;;2.22;;
70796;SDS011;63842;52.144;5.360;2022-11-15T14:53:41;5.28;;;1.90;;
70796;SDS011;63842;52.144;5.360;2022-11-15T14:56:08;8.70;;;2.10;;
70796;SDS011;63842;52.144;5.360;2022-11-15T14:58:36;6.00;;;1.90;;
70796;SDS011;63842;52.144;5.360;2022-11-15T15:01:10;5.45;;;1.92;;
70796;SDS011;63842;52.144;5.360;2022-11-15T15:06:06;5.93;;;1.80;;
70796;SDS011;63842;52.144;5.360;2022-11-15T15:08:42;5.03;;;1.70;;
70796;SDS011;63842;52.144;5.360;2022-11-15T15:11:14;6.90;;;1.83;;
70796;SDS011;63842;52.144;5.360;2022-11-15T15:13:41;5.55;;;1.75;;
70796;SDS011;63842;52.144;5.360;2022-11-15T15:16:09;6.28;;;1.73;;
70796;SDS011;63842;52.144;5.360;2022-11-15T15:18:36;4.60;;;1.60;;
70796;SDS011;63842;52.144;5.360;2022-11-15T15:21:04;5.32;;;1.67;;
70796;SDS011;63842;52.144;5.360;2022-11-15T15:23:39;5.35;;;1.50;;
70796;SDS011;63842;52.144;5.360;2022-11-15T15:26:06;7.00;;;1.70;;
70796;SDS011;63842;52.144;5.360;2022-11-15T15:28:34;6.53;;;1.75;;
70796;SDS011;63842;52.144;5.360;2022-11-15T15:31:02;6.47;;;1.70;;
70796;SDS011;63842;52.144;5.360;2022-11-15T15:33:29;6.93;;;1.73;;
70796;SDS011;63842;52.144;5.360;2022-11-15T15:35:56;5.63;;;1.63;;
70796;SDS011;63842;52.144;5.360;2022-11-15T15:38:24;5.07;;;1.60;;
70796;SDS011;63842;52.144;5.360;2022-11-15T15:40:51;5.63;;;1.70;;
70796;SDS011;63842;52.144;5.360;2022-11-15T15:43:18;3.38;;;1.30;;
70796;SDS011;63842;52.144;5.360;2022-11-15T15:45:46;5.22;;;1.45;;
70796;SDS011;63842;52.144;5.360;2022-11-15T15:48:14;5.90;;;1.63;;
70796;SDS011;63842;52.144;5.360;2022-11-15T15:50:41;6.28;;;1.80;;
70796;SDS011;63842;52.144;5.360;2022-11-15T15:53:09;6.63;;;2.10;;
70796;SDS011;63842;52.144;5.360;2022-11-15T15:55:37;6.30;;;1.80;;
70796;SDS011;63842;52.144;5.360;2022-11-15T15:58:05;8.73;;;1.80;;
70796;SDS011;63842;52.144;5.360;2022-11-15T16:00:32;7.28;;;1.80;;
70796;SDS011;63842;52.144;5.360;2022-11-15T16:03:00;6.97;;;1.65;;
70796;SDS011;63842;52.144;5.360;2022-11-15T16:05:27;4.60;;;1.58;;
70796;SDS011;63842;52.144;5.360;2022-11-15T16:07:54;8.48;;;2.00;;
70796;SDS011;63842;52.144;5.360;2022-11-15T16:10:26;9.10;;;3.00;;
70796;SDS011;63842;52.144;5.360;2022-11-15T16:12:53;10.82;;;2.80;;
70796;SDS011;63842;52.144;5.360;2022-11-15T16:15:22;6.78;;;1.90;;
70796;SDS011;63842;52.144;5.360;2022-11-15T16:17:50;7.53;;;2.63;;
70796;SDS011;63842;52.144;5.360;2022-11-15T16:20:22;8.00;;;2.72;;
70796;SDS011;63842;52.144;5.360;2022-11-15T16:22:50;8.13;;;2.20;;
70796;SDS011;63842;52.144;5.360;2022-11-15T16:25:17;5.40;;;2.00;;
70796;SDS011;63842;52.144;5.360;2022-11-15T16:27:44;6.72;;;1.95;;
70796;SDS011;63842;52.144;5.360;2022-11-15T16:30:16;7.45;;;2.08;;
70796;SDS011;63842;52.144;5.360;2022-11-15T16:32:44;6.13;;;1.70;;
70796;SDS011;63842;52.144;5.360;2022-11-15T16:35:11;8.40;;;1.80;;
70796;SDS011;63842;52.144;5.360;2022-11-15T16:37:39;6.80;;;2.22;;
70796;SDS011;63842;52.144;5.360;2022-11-15T16:40:28;7.32;;;2.40;;
70796;SDS011;63842;52.144;5.360;2022-11-15T16:42:56;8.43;;;2.47;;
70796;SDS011;63842;52.144;5.360;2022-11-15T16:45:25;6.22;;;2.30;;
70796;SDS011;63842;52.144;5.360;2022-11-15T16:50:23;9.88;;;2.40;;
70796;SDS011;63842;52.144;5.360;2022-11-15T16:52:54;7.28;;;2.65;;
70796;SDS011;63842;52.144;5.360;2022-11-15T16:55:23;7.43;;;2.40;;
70796;SDS011;63842;52.144;5.360;2022-11-15T16:57:50;6.63;;;2.08;;
70796;SDS011;63842;52.144;5.360;2022-11-15T17:00:18;7.53;;;2.13;;
70796;SDS011;63842;52.144;5.360;2022-11-15T17:02:46;7.10;;;2.10;;
70796;SDS011;63842;52.144;5.360;2022-11-15T17:05:14;6.13;;;2.17;;
70796;SDS011;63842;52.144;5.360;2022-11-15T17:07:46;8.32;;;2.38;;
70796;SDS011;63842;52.144;5.360;2022-11-15T17:10:22;5.63;;;1.80;;
70796;SDS011;63842;52.144;5.360;2022-11-15T17:12:50;5.93;;;2.08;;
70796;SDS011;63842;52.144;5.360;2022-11-15T17:15:18;6.05;;;2.10;;
70796;SDS011;63842;52.144;5.360;2022-11-15T17:17:49;8.07;;;1.90;;
70796;SDS011;63842;52.144;5.360;2022-11-15T17:20:18;8.23;;;1.90;;
70796;SDS011;63842;52.144;5.360;2022-11-15T17:22:45;5.75;;;2.00;;
70796;SDS011;63842;52.144;5.360;2022-11-15T17:25:12;5.78;;;1.70;;
70796;SDS011;63842;52.144;5.360;2022-11-15T17:27:40;5.68;;;1.90;;
70796;SDS011;63842;52.144;5.360;2022-11-15T17:30:08;4.63;;;1.75;;
70796;SDS011;63842;52.144;5.360;2022-11-15T17:32:37;9.07;;;1.80;;
70796;SDS011;63842;52.144;5.360;2022-11-15T17:35:04;5.97;;;2.00;;
70796;SDS011;63842;52.144;5.360;2022-11-15T17:40:07;5.57;;;1.60;;
70796;SDS011;63842;52.144;5.360;2022-11-15T17:42:35;6.53;;;2.08;;
70796;SDS011;63842;52.144;5.360;2022-11-15T17:45:02;6.28;;;2.20;;
70796;SDS011;63842;52.144;5.360;2022-11-15T17:47:35;6.70;;;2.05;;
70796;SDS011;63842;52.144;5.360;2022-11-15T17:50:03;7.00;;;2.95;;
70796;SDS011;63842;52.144;5.360;2022-11-15T17:52:30;6.28;;;2.50;;
70796;SDS011;63842;52.144;5.360;2022-11-15T17:55:00;8.70;;;2.53;;
70796;SDS011;63842;52.144;5.360;2022-11-15T17:57:27;7.55;;;2.33;;
70796;SDS011;63842;52.144;5.360;2022-11-15T17:59:55;7.70;;;2.58;;
70796;SDS011;63842;52.144;5.360;2022-11-15T18:02:22;7.10;;;2.40;;
70796;SDS011;63842;52.144;5.360;2022-11-15T18:04:49;6.20;;;2.40;;
70796;SDS011;63842;52.144;5.360;2022-11-15T18:07:16;8.02;;;2.53;;
70796;SDS011;63842;52.144;5.360;2022-11-15T18:09:43;8.02;;;2.80;;
70796;SDS011;63842;52.144;5.360;2022-11-15T18:12:11;10.10;;;2.63;;
70796;SDS011;63842;52.144;5.360;2022-11-15T18:14:38;9.55;;;3.00;;
70796;SDS011;63842;52.144;5.360;2022-11-15T18:17:05;7.32;;;2.75;;